createdAt,value
2018-08-24T00:01:58.885Z,5.80
2018-08-24T00:04:26.262Z,5.77
2018-08-24T00:06:53.681Z,6.10
2018-08-24T00:09:24.868Z,7.60
2018-08-24T00:11:52.183Z,6.03
2018-08-24T00:14:19.472Z,6.77
2018-08-24T00:16:46.788Z,7.93
2018-08-24T00:19:15.602Z,6.50
2018-08-24T00:21:43.254Z,5.83
2018-08-24T00:24:11.290Z,6.70
2018-08-24T00:26:38.626Z,7.53
2018-08-24T00:29:06.637Z,6.87
2018-08-24T00:31:34.555Z,7.10
2018-08-24T00:34:01.879Z,7.53
2018-08-24T00:36:29.189Z,6.37
2018-08-24T00:38:57.180Z,6.20
2018-08-24T00:41:24.477Z,7.27
2018-08-24T00:43:51.784Z,6.97
2018-08-24T00:46:19.656Z,7.63
2018-08-24T00:48:47.107Z,7.77
2018-08-24T00:51:14.470Z,7.20
2018-08-24T00:53:41.779Z,7.13
2018-08-24T00:56:09.957Z,6.80
2018-08-24T00:58:37.873Z,6.97
2018-08-24T01:01:05.501Z,7.10
2018-08-24T01:03:32.849Z,6.43
2018-08-24T01:06:00.328Z,9.07
2018-08-24T01:08:27.638Z,7.80
2018-08-24T01:10:54.947Z,7.60
2018-08-24T01:13:22.330Z,6.57
2018-08-24T01:15:52.312Z,7.13
2018-08-24T01:18:22.640Z,6.40
2018-08-24T01:20:50.581Z,7.23
2018-08-24T01:23:18.857Z,6.80
2018-08-24T01:25:46.307Z,6.83
2018-08-24T01:28:13.639Z,5.87
2018-08-24T01:30:40.955Z,7.70
2018-08-24T01:33:08.248Z,8.10
2018-08-24T01:35:35.600Z,7.37
2018-08-24T01:38:03.031Z,7.27
2018-08-24T01:40:30.367Z,8.30
2018-08-24T01:42:57.688Z,6.90
2018-08-24T01:45:24.996Z,6.70
2018-08-24T01:47:52.328Z,7.47
2018-08-24T01:50:19.638Z,6.67
2018-08-24T01:52:47.000Z,6.60
2018-08-24T01:55:14.334Z,6.30
2018-08-24T01:57:41.686Z,7.10
2018-08-24T02:00:09.067Z,8.17
2018-08-24T02:02:36.802Z,10.60
2018-08-24T02:05:04.242Z,7.43
2018-08-24T02:07:31.619Z,7.43
2018-08-24T02:09:58.939Z,6.77
2018-08-24T02:12:31.955Z,7.27
2018-08-24T02:14:59.300Z,6.80
2018-08-24T02:17:31.983Z,7.70
2018-08-24T02:20:04.615Z,7.87
2018-08-24T02:22:32.025Z,8.00
2018-08-24T02:24:59.343Z,7.00
2018-08-24T02:27:26.635Z,8.30
2018-08-24T02:29:56.850Z,6.57
2018-08-24T02:32:24.245Z,8.73
2018-08-24T02:34:51.556Z,7.83
2018-08-24T02:37:18.876Z,7.27
2018-08-24T02:39:46.192Z,7.20
2018-08-24T02:42:13.539Z,7.47
2018-08-24T02:44:40.887Z,7.30
2018-08-24T02:47:08.519Z,7.47
2018-08-24T02:49:35.883Z,6.93
2018-08-24T02:52:03.222Z,8.67
2018-08-24T02:54:30.604Z,7.77
2018-08-24T02:56:57.974Z,7.77
2018-08-24T02:59:25.309Z,7.90
2018-08-24T03:01:52.693Z,7.70
2018-08-24T03:04:20.157Z,7.60
2018-08-24T03:06:47.528Z,7.13
2018-08-24T03:09:14.864Z,7.50
2018-08-24T03:11:42.191Z,7.47
2018-08-24T03:14:09.560Z,7.80
2018-08-24T03:16:36.884Z,7.87
2018-08-24T03:19:04.213Z,8.03
2018-08-24T03:21:31.610Z,7.30
2018-08-24T03:23:58.988Z,8.83
2018-08-24T03:26:26.321Z,7.67
2018-08-24T03:28:53.677Z,7.67
2018-08-24T03:31:21.032Z,10.43
2018-08-24T03:33:48.372Z,9.57
2018-08-24T03:36:16.099Z,7.03
2018-08-24T03:38:43.414Z,7.83
2018-08-24T03:41:10.721Z,7.60
2018-08-24T03:43:38.114Z,7.60
2018-08-24T03:46:05.400Z,8.23
2018-08-24T03:48:32.963Z,7.60
2018-08-24T03:51:00.335Z,8.30
2018-08-24T03:53:27.757Z,8.43
2018-08-24T03:55:55.080Z,8.50
2018-08-24T03:58:22.458Z,9.43
2018-08-24T04:00:49.833Z,8.10
2018-08-24T04:03:17.280Z,9.23
2018-08-24T04:05:44.707Z,7.77
2018-08-24T04:08:12.089Z,7.90
2018-08-24T04:10:39.451Z,8.60
2018-08-24T04:13:06.812Z,9.03
2018-08-24T04:15:34.541Z,7.50
2018-08-24T04:18:01.868Z,8.20
2018-08-24T04:20:29.248Z,8.60
2018-08-24T04:22:56.620Z,8.50
2018-08-24T04:25:23.936Z,8.77
2018-08-24T04:27:51.416Z,8.23
2018-08-24T04:30:20.242Z,7.93
2018-08-24T04:32:47.604Z,7.50
2018-08-24T04:35:15.012Z,8.50
2018-08-24T04:37:42.534Z,8.77
2018-08-24T04:40:09.875Z,8.27
2018-08-24T04:42:37.184Z,9.60
2018-08-24T04:45:04.555Z,7.23
2018-08-24T04:47:31.912Z,8.87
2018-08-24T04:49:59.343Z,7.33
2018-08-24T04:52:26.690Z,7.37
2018-08-24T04:54:54.173Z,7.30
2018-08-24T04:57:21.493Z,8.00
2018-08-24T04:59:51.693Z,10.77
2018-08-24T05:02:19.070Z,9.20
2018-08-24T05:04:46.364Z,8.30
2018-08-24T05:07:13.702Z,6.07
2018-08-24T05:09:41.049Z,7.20
2018-08-24T05:12:08.332Z,6.80
2018-08-24T05:14:36.034Z,8.20
2018-08-24T05:17:03.477Z,6.87
2018-08-24T05:19:30.846Z,7.10
2018-08-24T05:21:58.144Z,9.43
2018-08-24T05:24:25.492Z,6.47
2018-08-24T05:26:52.821Z,8.20
2018-08-24T05:29:20.112Z,7.17
2018-08-24T05:31:47.413Z,9.20
2018-08-24T05:34:15.102Z,6.00
2018-08-24T05:36:42.393Z,6.00
2018-08-24T05:39:09.926Z,5.30
2018-08-24T05:41:37.397Z,6.07
2018-08-24T05:44:04.703Z,6.40
2018-08-24T05:46:32.161Z,6.07
2018-08-24T05:48:59.577Z,5.77
2018-08-24T05:51:26.785Z,6.23
2018-08-24T05:53:54.129Z,5.50
2018-08-24T05:56:21.461Z,7.37
2018-08-24T05:58:48.754Z,6.97
2018-08-24T06:01:17.065Z,6.10
2018-08-24T06:03:44.388Z,5.63
2018-08-24T06:06:11.792Z,5.10
2018-08-24T06:08:39.119Z,5.73
2018-08-24T06:11:06.532Z,7.20
2018-08-24T06:13:33.840Z,5.73
2018-08-24T06:16:01.292Z,5.77
2018-08-24T06:18:28.529Z,6.63
2018-08-24T06:20:55.894Z,5.07
2018-08-24T06:23:23.226Z,6.80
2018-08-24T06:25:50.564Z,5.07
2018-08-24T06:28:17.904Z,5.73
2018-08-24T06:30:45.244Z,5.27
2018-08-24T06:33:13.170Z,5.43
2018-08-24T06:35:40.492Z,9.60
2018-08-24T06:38:07.826Z,5.93
2018-08-24T06:40:35.584Z,5.63
2018-08-24T06:43:02.901Z,5.30
2018-08-24T06:45:30.219Z,5.10
2018-08-24T06:47:57.575Z,6.27
2018-08-24T06:50:24.853Z,7.07
2018-08-24T06:52:52.197Z,5.83
2018-08-24T06:55:19.524Z,6.93
2018-08-24T06:57:46.819Z,4.57
2018-08-24T07:00:14.432Z,4.07
2018-08-24T07:02:41.882Z,4.43
2018-08-24T07:05:09.318Z,4.70
2018-08-24T07:07:36.688Z,3.87
2018-08-24T07:10:04.056Z,5.07
2018-08-24T07:12:31.348Z,4.57
2018-08-24T07:14:58.707Z,5.97
2018-08-24T07:18:03.221Z,3.67
2018-08-24T07:20:31.244Z,4.20
2018-08-24T07:22:58.539Z,4.47
2018-08-24T07:25:25.902Z,5.60
2018-08-24T07:27:53.597Z,3.50
2018-08-24T07:30:20.920Z,4.03
2018-08-24T07:32:48.306Z,4.33
2018-08-24T07:35:15.760Z,3.40
2018-08-24T07:37:43.130Z,3.60
2018-08-24T07:40:10.428Z,5.90
2018-08-24T07:42:37.782Z,4.77
2018-08-24T07:45:05.100Z,3.77
2018-08-24T07:47:32.519Z,3.60
2018-08-24T07:49:59.823Z,6.03
2018-08-24T07:52:27.154Z,4.60
2018-08-24T07:54:54.512Z,3.90
2018-08-24T07:57:22.726Z,4.20
2018-08-24T07:59:50.248Z,4.80
2018-08-24T08:02:17.638Z,3.90
2018-08-24T08:04:44.974Z,4.80
2018-08-24T08:07:12.399Z,6.07
2018-08-24T08:09:40.044Z,4.60
2018-08-24T08:12:07.609Z,4.27
2018-08-24T08:14:34.976Z,4.47
2018-08-24T08:17:03.137Z,5.50
2018-08-24T08:19:31.412Z,4.93
2018-08-24T08:22:01.701Z,5.13
2018-08-24T08:24:29.176Z,7.93
2018-08-24T08:26:56.703Z,4.87
2018-08-24T08:29:29.334Z,4.27
2018-08-24T08:31:56.670Z,4.67
2018-08-24T08:34:23.973Z,5.20
2018-08-24T08:36:51.344Z,4.60
2018-08-24T08:39:18.652Z,4.43
2018-08-24T08:41:45.951Z,5.10
2018-08-24T08:44:14.222Z,4.67
2018-08-24T08:46:41.731Z,5.53
2018-08-24T08:49:09.109Z,4.00
2018-08-24T08:51:36.522Z,5.10
2018-08-24T08:54:04.703Z,5.43
2018-08-24T08:56:32.061Z,5.90
2018-08-24T08:58:59.397Z,5.00
2018-08-24T09:01:27.551Z,5.10
2018-08-24T09:03:54.907Z,5.77
2018-08-24T09:06:22.281Z,5.70
2018-08-24T09:08:49.663Z,5.90
2018-08-24T09:11:16.966Z,4.57
2018-08-24T09:13:44.309Z,4.80
2018-08-24T09:16:11.903Z,5.10
2018-08-24T09:18:44.491Z,10.87
2018-08-24T09:21:17.123Z,8.60
2018-08-24T09:23:49.862Z,8.20
2018-08-24T09:26:22.525Z,7.20
2018-08-24T09:28:51.007Z,6.67
2018-08-24T09:31:23.542Z,9.70
2018-08-24T09:33:50.945Z,6.90
2018-08-24T09:36:22.920Z,7.37
2018-08-24T09:38:51.493Z,7.63
2018-08-24T09:41:18.868Z,6.50
2018-08-24T09:43:51.644Z,7.67
2018-08-24T09:46:19.090Z,10.63
2018-08-24T09:48:51.811Z,7.10
2018-08-24T09:51:25.382Z,10.63
2018-08-24T09:53:58.196Z,9.10
2018-08-24T09:56:26.276Z,10.47
2018-08-24T09:58:53.627Z,10.93
2018-08-24T10:01:26.733Z,8.57
2018-08-24T10:03:59.363Z,8.83
2018-08-24T10:06:32.092Z,9.80
2018-08-24T10:08:59.475Z,11.37
2018-08-24T10:11:26.839Z,9.90
2018-08-24T10:13:54.151Z,9.07
2018-08-24T10:16:21.470Z,9.60
2018-08-24T10:18:48.797Z,10.40
2018-08-24T10:21:17.017Z,10.37
2018-08-24T10:23:45.015Z,11.17
2018-08-24T10:26:12.323Z,11.60
2018-08-24T10:28:39.674Z,10.70
2018-08-24T10:31:06.982Z,10.40
2018-08-24T10:33:34.309Z,10.93
2018-08-24T10:36:01.684Z,10.57
2018-08-24T10:38:29.056Z,11.33
2018-08-24T10:40:56.475Z,11.20
2018-08-24T10:43:23.723Z,11.30
2018-08-24T10:45:51.036Z,10.33
2018-08-24T10:48:18.368Z,11.20
2018-08-24T10:50:45.676Z,10.27
2018-08-24T10:53:13.141Z,10.80
2018-08-24T10:55:40.498Z,10.10
2018-08-24T10:58:07.761Z,9.63
2018-08-24T11:00:35.135Z,9.93
2018-08-24T11:03:02.662Z,9.60
2018-08-24T11:05:30.031Z,11.70
2018-08-24T11:07:57.384Z,11.40
2018-08-24T11:10:24.712Z,10.90
2018-08-24T11:12:52.013Z,10.63
2018-08-24T11:15:19.334Z,10.70
2018-08-24T11:17:51.843Z,9.43
2018-08-24T11:20:19.129Z,10.83
2018-08-24T11:22:46.722Z,11.60
2018-08-24T11:25:14.047Z,13.20
2018-08-24T11:27:41.346Z,12.53
2018-08-24T11:30:08.664Z,15.40
2018-08-24T11:32:35.981Z,14.43
2018-08-24T11:35:03.344Z,12.43
2018-08-24T11:37:30.667Z,12.37
2018-08-24T11:39:57.996Z,10.53
2018-08-24T11:42:25.346Z,10.87
2018-08-24T11:44:52.640Z,12.77
2018-08-24T11:47:20.601Z,10.07
2018-08-24T11:49:50.224Z,10.50
2018-08-24T11:52:18.050Z,11.27
2018-08-24T11:54:45.789Z,12.87
2018-08-24T11:57:13.111Z,11.60
2018-08-24T11:59:40.505Z,12.53
2018-08-24T12:02:07.898Z,10.63
2018-08-24T12:04:35.131Z,10.13
2018-08-24T12:07:02.840Z,10.80
2018-08-24T12:09:30.121Z,11.73
2018-08-24T12:11:57.494Z,10.60
2018-08-24T12:14:24.816Z,9.47
2018-08-24T12:16:52.364Z,10.27
2018-08-24T12:19:19.772Z,9.20
2018-08-24T12:21:47.106Z,10.07
2018-08-24T12:24:14.666Z,9.17
2018-08-24T12:26:43.275Z,9.70
2018-08-24T12:29:10.685Z,8.40
2018-08-24T12:31:38.086Z,9.23
2018-08-24T12:34:05.594Z,8.90
2018-08-24T12:36:32.965Z,9.17
2018-08-24T12:39:00.308Z,9.07
2018-08-24T12:41:27.683Z,8.53
2018-08-24T12:43:55.165Z,7.30
2018-08-24T12:46:22.450Z,8.87
2018-08-24T12:48:49.829Z,8.43
2018-08-24T12:51:17.194Z,8.57
2018-08-24T12:53:44.667Z,8.10
2018-08-24T12:56:17.334Z,7.80
2018-08-24T12:58:44.712Z,7.47
2018-08-24T13:01:12.251Z,7.30
2018-08-24T13:03:39.625Z,7.70
2018-08-24T13:06:07.070Z,7.30
2018-08-24T13:08:34.505Z,6.40
2018-08-24T13:11:01.927Z,6.60
2018-08-24T13:13:29.250Z,8.10
2018-08-24T13:15:56.712Z,6.77
2018-08-24T13:18:24.068Z,7.30
2018-08-24T13:20:51.619Z,7.20
2018-08-24T13:23:19.016Z,7.13
2018-08-24T13:25:46.358Z,6.53
2018-08-24T13:28:13.675Z,7.40
2018-08-24T13:30:41.007Z,7.07
2018-08-24T13:33:08.428Z,7.70
2018-08-24T13:35:35.892Z,6.90
2018-08-24T13:38:03.488Z,7.50
2018-08-24T13:40:30.812Z,7.87
2018-08-24T13:42:58.451Z,8.17
2018-08-24T13:45:25.803Z,6.80
2018-08-24T13:47:53.096Z,6.53
2018-08-24T13:50:21.058Z,7.13
2018-08-24T13:52:48.563Z,8.57
2018-08-24T13:55:15.916Z,7.43
2018-08-24T13:57:43.221Z,7.20
2018-08-24T14:00:10.526Z,9.70
2018-08-24T14:02:38.197Z,7.90
2018-08-24T14:05:05.553Z,8.33
2018-08-24T14:07:33.255Z,7.27
2018-08-24T14:10:00.950Z,7.73
2018-08-24T14:12:28.268Z,7.23
2018-08-24T14:14:55.557Z,6.23
2018-08-24T14:17:22.915Z,9.03
2018-08-24T14:19:50.296Z,8.10
2018-08-24T14:22:17.570Z,7.00
2018-08-24T14:24:45.438Z,6.73
2018-08-24T14:27:12.738Z,6.63
2018-08-24T14:29:40.041Z,8.93
2018-08-24T14:32:07.439Z,7.10
2018-08-24T14:34:34.769Z,7.23
2018-08-24T14:37:02.144Z,5.87
2018-08-24T14:39:29.464Z,6.37
2018-08-24T14:41:56.802Z,5.87
2018-08-24T14:44:24.168Z,9.00
2018-08-24T14:46:51.457Z,5.77
2018-08-24T14:49:18.945Z,7.27
2018-08-24T14:51:46.311Z,6.10
2018-08-24T14:54:13.624Z,6.40
2018-08-24T14:56:40.977Z,7.23
2018-08-24T14:59:08.318Z,6.10
2018-08-24T15:01:35.722Z,8.07
2018-08-24T15:04:03.085Z,6.40
2018-08-24T15:06:30.651Z,6.37
2018-08-24T15:08:57.997Z,6.07
2018-08-24T15:11:25.357Z,7.23
2018-08-24T15:13:52.699Z,7.00
2018-08-24T15:16:20.025Z,5.67
2018-08-24T15:18:47.384Z,6.50
2018-08-24T15:21:14.716Z,5.77
2018-08-24T15:23:42.396Z,6.17
2018-08-24T15:26:09.714Z,6.30
2018-08-24T15:28:37.102Z,7.43
2018-08-24T15:31:04.763Z,6.77
2018-08-24T15:33:32.115Z,8.13
2018-08-24T15:35:59.439Z,5.60
2018-08-24T15:38:26.829Z,5.40
2018-08-24T15:40:54.185Z,5.87
2018-08-24T15:43:21.499Z,6.80
2018-08-24T15:45:49.022Z,5.57
2018-08-24T15:48:16.445Z,5.70
2018-08-24T15:50:43.783Z,7.87
2018-08-24T15:53:12.306Z,7.73
2018-08-24T15:55:40.041Z,6.67
2018-08-24T15:58:07.369Z,5.83
2018-08-24T16:00:34.702Z,6.43
2018-08-24T16:03:02.045Z,6.03
2018-08-24T16:05:29.328Z,6.37
2018-08-24T16:07:56.658Z,6.80
2018-08-24T16:10:24.005Z,5.83
2018-08-24T16:12:51.318Z,9.10
2018-08-24T16:15:18.679Z,6.63
2018-08-24T16:17:50.291Z,6.37
2018-08-24T16:20:17.806Z,6.33
2018-08-24T16:22:45.115Z,5.70
2018-08-24T16:25:12.406Z,7.70
2018-08-24T16:27:39.920Z,5.93
2018-08-24T16:30:07.261Z,7.00
2018-08-24T16:32:34.663Z,7.03
2018-08-24T16:35:01.988Z,6.50
2018-08-24T16:37:29.325Z,6.03
2018-08-24T16:39:57.445Z,7.17
2018-08-24T16:42:24.768Z,6.40
2018-08-24T16:44:52.092Z,6.50
2018-08-24T16:47:20.063Z,6.30
2018-08-24T16:49:47.416Z,6.27
2018-08-24T16:52:14.728Z,6.43
2018-08-24T16:54:42.048Z,6.70
2018-08-24T16:57:09.400Z,6.83
2018-08-24T16:59:36.734Z,8.90
2018-08-24T17:02:04.073Z,7.43
2018-08-24T17:04:31.484Z,6.63
2018-08-24T17:06:58.897Z,8.13
2018-08-24T17:09:26.299Z,6.20
2018-08-24T17:11:53.652Z,6.63
2018-08-24T17:14:21.007Z,7.00
2018-08-24T17:16:48.326Z,5.70
2018-08-24T17:19:15.652Z,7.63
2018-08-24T17:21:43.003Z,8.50
2018-08-24T17:24:10.344Z,5.90
2018-08-24T17:26:37.782Z,6.50
2018-08-24T17:29:05.139Z,7.07
2018-08-24T17:31:32.423Z,10.53
2018-08-24T17:33:59.781Z,6.47
2018-08-24T17:36:27.109Z,6.80
2018-08-24T17:38:54.470Z,8.60
2018-08-24T17:41:21.785Z,7.80
2018-08-24T17:43:49.185Z,7.07
2018-08-24T17:46:17.128Z,8.10
2018-08-24T17:48:44.506Z,5.90
2018-08-24T17:51:11.861Z,8.23
2018-08-24T17:53:39.191Z,8.40
2018-08-24T17:56:06.544Z,7.47
2018-08-24T17:58:33.891Z,7.13
2018-08-24T18:01:01.230Z,6.83
2018-08-24T18:03:28.659Z,7.03
2018-08-24T18:05:56.042Z,7.80
2018-08-24T18:08:23.344Z,8.07
2018-08-24T18:10:50.630Z,6.50
2018-08-24T18:13:17.960Z,7.83
2018-08-24T18:15:45.281Z,7.23
2018-08-24T18:18:12.619Z,7.53
2018-08-24T18:20:39.978Z,8.00
2018-08-24T18:23:07.353Z,6.77
2018-08-24T18:25:34.840Z,10.60
2018-08-24T18:28:02.216Z,6.97
2018-08-24T18:30:29.518Z,6.80
2018-08-24T18:32:56.992Z,7.70
2018-08-24T18:35:24.301Z,7.37
2018-08-24T18:37:51.674Z,6.30
2018-08-24T18:40:19.064Z,8.60
2018-08-24T18:42:46.558Z,6.73
2018-08-24T18:45:13.867Z,6.33
2018-08-24T18:47:41.175Z,7.20
2018-08-24T18:50:08.539Z,6.33
2018-08-24T18:52:35.919Z,7.03
2018-08-24T18:55:03.262Z,6.73
2018-08-24T18:57:30.621Z,6.93
2018-08-24T18:59:57.973Z,10.23
2018-08-24T19:02:25.453Z,12.77
2018-08-24T19:04:52.799Z,7.73
2018-08-24T19:07:20.126Z,8.33
2018-08-24T19:09:47.508Z,7.30
2018-08-24T19:12:20.227Z,6.63
2018-08-24T19:14:47.945Z,6.33
2018-08-24T19:17:20.705Z,6.63
2018-08-24T19:19:53.307Z,6.90
2018-08-24T19:22:20.962Z,6.60
2018-08-24T19:24:48.282Z,7.27
2018-08-24T19:27:16.019Z,11.50
2018-08-24T19:29:48.588Z,8.37
2018-08-24T19:32:16.029Z,6.70
2018-08-24T19:34:43.351Z,6.83
2018-08-24T19:37:10.723Z,7.53
2018-08-24T19:39:39.100Z,6.47
2018-08-24T19:42:11.871Z,8.00
2018-08-24T19:44:39.218Z,6.07
2018-08-24T19:47:11.090Z,6.07
2018-08-24T19:49:38.400Z,6.97
2018-08-24T19:52:06.267Z,6.60
2018-08-24T19:54:33.562Z,6.50
2018-08-24T19:57:05.150Z,7.60
2018-08-24T19:59:32.492Z,7.23
2018-08-24T20:01:59.824Z,8.13
2018-08-24T20:04:27.275Z,10.40
2018-08-24T20:07:00.080Z,6.80
2018-08-24T20:09:32.744Z,7.43
2018-08-24T20:12:00.024Z,6.97
2018-08-24T20:14:32.689Z,7.83
2018-08-24T20:17:06.340Z,5.80
2018-08-24T20:19:34.085Z,7.00
2018-08-24T20:22:01.557Z,7.33
2018-08-24T20:24:29.065Z,9.10
2018-08-24T20:26:56.329Z,5.43
2018-08-24T20:29:23.653Z,6.40
2018-08-24T20:31:51.049Z,6.23
2018-08-24T20:34:19.178Z,6.13
2018-08-24T20:36:46.503Z,6.70
2018-08-24T20:39:13.789Z,5.30
2018-08-24T20:41:41.389Z,6.17
2018-08-24T20:44:08.696Z,4.70
2018-08-24T20:46:36.222Z,6.97
2018-08-24T20:49:03.625Z,5.23
2018-08-24T20:51:30.956Z,5.60
2018-08-24T20:53:58.611Z,5.87
2018-08-24T20:56:25.974Z,4.63
2018-08-24T20:58:53.295Z,5.70
2018-08-24T21:01:20.645Z,5.67
2018-08-24T21:03:48.093Z,4.90
2018-08-24T21:06:15.855Z,4.87
2018-08-24T21:08:43.153Z,4.33
2018-08-24T21:11:10.435Z,5.90
2018-08-24T21:13:37.819Z,5.40
2018-08-24T21:16:05.157Z,7.17
2018-08-24T21:18:32.866Z,5.17
2018-08-24T21:21:00.210Z,4.80
2018-08-24T21:23:27.729Z,7.80
2018-08-24T21:25:55.230Z,4.30
2018-08-24T21:28:22.610Z,5.37
2018-08-24T21:30:49.877Z,7.17
2018-08-24T21:33:17.187Z,6.93
2018-08-24T21:35:44.835Z,4.57
2018-08-24T21:38:12.190Z,3.50
2018-08-24T21:40:39.556Z,4.77
2018-08-24T21:43:06.849Z,4.10
2018-08-24T21:45:34.134Z,5.13
2018-08-24T21:48:01.446Z,4.20
2018-08-24T21:50:28.741Z,3.97
2018-08-24T21:52:56.090Z,4.67
2018-08-24T21:55:23.382Z,8.57
2018-08-24T21:57:50.723Z,4.63
2018-08-24T22:00:18.058Z,6.93
2018-08-24T22:02:45.582Z,4.73
2018-08-24T22:05:13.189Z,2.90
2018-08-24T22:07:40.468Z,3.73
2018-08-24T22:10:07.806Z,4.30
2018-08-24T22:12:35.161Z,3.87
2018-08-24T22:15:02.468Z,2.70
2018-08-24T22:17:29.863Z,5.47
2018-08-24T22:19:57.154Z,5.47
2018-08-24T22:22:24.481Z,4.73
2018-08-24T22:24:51.770Z,3.50
2018-08-24T22:27:19.066Z,3.10
2018-08-24T22:29:46.389Z,2.77
2018-08-24T22:32:13.730Z,8.63
2018-08-24T22:34:41.019Z,3.80
2018-08-24T22:37:08.390Z,4.30
2018-08-24T22:39:36.126Z,4.13
2018-08-24T22:42:03.514Z,5.80
2018-08-24T22:44:30.790Z,4.70
2018-08-24T22:46:58.089Z,2.40
2018-08-24T22:49:25.369Z,3.00
2018-08-24T22:51:52.682Z,3.50
2018-08-24T22:54:19.993Z,5.40
2018-08-24T22:56:47.332Z,5.67
2018-08-24T22:59:14.622Z,4.07
2018-08-24T23:01:41.980Z,3.40
2018-08-24T23:04:09.262Z,3.00
2018-08-24T23:06:36.612Z,3.90
2018-08-24T23:09:05.867Z,3.90
2018-08-24T23:11:33.153Z,2.93
2018-08-24T23:14:00.474Z,8.53
2018-08-24T23:16:27.826Z,3.30
2018-08-24T23:18:55.115Z,5.90
2018-08-24T23:21:22.402Z,3.37
2018-08-24T23:23:49.714Z,6.80
2018-08-24T23:26:17.095Z,5.57
2018-08-24T23:28:44.461Z,2.83
2018-08-24T23:31:12.088Z,2.87
2018-08-24T23:33:39.382Z,5.70
2018-08-24T23:36:06.748Z,4.00
2018-08-24T23:38:34.166Z,5.90
2018-08-24T23:41:01.481Z,8.00
2018-08-24T23:43:28.763Z,7.50
2018-08-24T23:45:56.086Z,4.80
2018-08-24T23:48:23.407Z,4.10
2018-08-24T23:50:50.689Z,4.40
2018-08-24T23:53:18.025Z,4.93
2018-08-24T23:55:45.335Z,4.47
2018-08-24T23:58:12.630Z,4.67
